createdAt,value
2023-05-10T00:02:20.543Z,2.20
2023-05-10T00:05:23.511Z,2.70
2023-05-10T00:08:26.223Z,2.67
2023-05-10T00:11:29.042Z,2.30
2023-05-10T00:14:31.621Z,2.37
2023-05-10T00:17:34.502Z,2.42
2023-05-10T00:20:37.040Z,2.30
2023-05-10T00:23:39.998Z,2.40
2023-05-10T00:26:43.363Z,2.45
2023-05-10T00:29:46.516Z,2.83
2023-05-10T00:32:50.763Z,2.70
2023-05-10T00:35:53.770Z,2.33
2023-05-10T00:38:56.348Z,2.50
2023-05-10T00:42:00.629Z,2.40
2023-05-10T00:45:03.798Z,2.62
2023-05-10T00:48:06.914Z,2.60
2023-05-10T00:51:09.991Z,2.60
2023-05-10T00:54:15.966Z,2.85
2023-05-10T00:57:18.568Z,2.20
2023-05-10T01:00:21.660Z,2.80
2023-05-10T01:03:24.527Z,2.80
2023-05-10T01:06:27.713Z,2.15
2023-05-10T01:09:30.448Z,2.72
2023-05-10T01:12:37.920Z,2.25
2023-05-10T01:15:41.142Z,2.42
2023-05-10T01:18:46.199Z,2.47
2023-05-10T01:22:03.162Z,3.00
2023-05-10T01:25:14.848Z,2.22
2023-05-10T01:28:29.571Z,2.30
2023-05-10T01:31:32.558Z,2.90
2023-05-10T01:35:00.136Z,2.65
2023-05-10T01:38:38.375Z,3.15
2023-05-10T01:41:52.504Z,2.92
2023-05-10T01:45:17.513Z,2.65
2023-05-10T01:48:22.067Z,2.47
2023-05-10T01:51:27.037Z,3.33
2023-05-10T01:54:30.179Z,2.70
2023-05-10T01:57:40.580Z,3.17
2023-05-10T02:00:48.288Z,2.65
2023-05-10T02:03:52.415Z,3.20
2023-05-10T02:06:56.273Z,2.83
2023-05-10T02:10:00.222Z,2.60
2023-05-10T02:13:04.432Z,2.08
2023-05-10T02:16:08.472Z,3.10
2023-05-10T02:19:12.935Z,2.80
2023-05-10T02:22:17.623Z,3.40
2023-05-10T02:25:22.445Z,2.78
2023-05-10T02:28:27.563Z,3.22
2023-05-10T02:31:34.199Z,2.90
2023-05-10T02:34:37.314Z,2.85
2023-05-10T02:37:41.199Z,2.83
2023-05-10T02:40:45.261Z,3.10
2023-05-10T02:43:50.549Z,3.50
2023-05-10T02:46:53.569Z,2.90
2023-05-10T02:49:56.531Z,3.00
2023-05-10T02:53:05.044Z,3.10
2023-05-10T02:56:15.731Z,3.12
2023-05-10T02:59:18.419Z,3.20
2023-05-10T03:02:22.084Z,3.28
2023-05-10T03:05:24.877Z,3.25
2023-05-10T03:08:30.334Z,3.42
2023-05-10T03:11:33.928Z,3.37
2023-05-10T03:15:07.244Z,2.83
2023-05-10T03:18:16.308Z,3.15
2023-05-10T03:21:20.588Z,3.37
2023-05-10T03:24:28.401Z,3.10
2023-05-10T03:27:33.277Z,3.30
2023-05-10T03:30:37.630Z,2.95
2023-05-10T03:33:48.708Z,3.22
2023-05-10T03:36:52.161Z,3.03
2023-05-10T03:39:55.572Z,3.50
2023-05-10T03:42:59.726Z,3.28
2023-05-10T03:46:04.452Z,3.03
2023-05-10T03:49:07.093Z,3.15
2023-05-10T03:52:09.959Z,3.37
2023-05-10T03:55:12.809Z,2.67
2023-05-10T03:58:16.307Z,3.33
2023-05-10T04:01:19.405Z,2.83
2023-05-10T04:04:24.194Z,3.92
2023-05-10T04:07:26.856Z,2.92
2023-05-10T04:10:29.844Z,3.45
2023-05-10T04:13:32.523Z,3.92
2023-05-10T04:16:35.458Z,3.28
2023-05-10T04:19:38.072Z,3.53
2023-05-10T04:22:40.974Z,3.22
2023-05-10T04:25:43.899Z,3.72
2023-05-10T04:28:46.799Z,3.90
2023-05-10T04:31:49.959Z,3.70
2023-05-10T04:34:52.988Z,3.70
2023-05-10T04:37:55.707Z,3.70
2023-05-10T04:41:06.304Z,3.42
2023-05-10T04:44:08.869Z,3.70
2023-05-10T04:47:12.918Z,3.95
2023-05-10T04:50:15.869Z,3.83
2023-05-10T04:53:18.830Z,3.30
2023-05-10T04:56:22.941Z,3.90
2023-05-10T04:59:25.744Z,3.65
2023-05-10T05:02:28.333Z,3.92
2023-05-10T05:05:31.210Z,4.35
2023-05-10T05:08:34.577Z,3.53
2023-05-10T05:11:37.556Z,3.90
2023-05-10T05:14:40.509Z,3.83
2023-05-10T05:17:44.407Z,3.92
2023-05-10T05:20:47.367Z,4.00
2023-05-10T05:23:50.207Z,4.03
2023-05-10T05:26:52.811Z,3.67
2023-05-10T05:29:59.170Z,3.90
2023-05-10T05:33:01.867Z,4.57
2023-05-10T05:36:06.386Z,3.72
2023-05-10T05:39:08.893Z,4.57
2023-05-10T05:42:12.612Z,4.47
2023-05-10T05:45:15.547Z,4.28
2023-05-10T05:48:18.686Z,3.90
2023-05-10T05:51:21.432Z,4.28
2023-05-10T05:54:24.252Z,5.82
2023-05-10T05:57:27.673Z,4.68
2023-05-10T06:00:30.669Z,5.40
2023-05-10T06:03:33.778Z,4.90
2023-05-10T06:06:36.406Z,4.00
2023-05-10T06:09:39.423Z,4.50
2023-05-10T06:12:42.202Z,4.05
2023-05-10T06:15:45.158Z,4.30
2023-05-10T06:18:47.726Z,4.05
2023-05-10T06:21:53.080Z,4.35
2023-05-10T06:24:56.417Z,4.50
2023-05-10T06:27:59.419Z,4.20
2023-05-10T06:31:02.491Z,3.87
2023-05-10T06:34:05.407Z,4.22
2023-05-10T06:37:07.955Z,3.90
2023-05-10T06:40:11.182Z,4.00
2023-05-10T06:43:13.753Z,4.03
2023-05-10T06:46:16.727Z,3.72
2023-05-10T06:49:19.386Z,4.18
2023-05-10T06:52:22.271Z,3.75
2023-05-10T06:55:44.894Z,4.00
2023-05-10T06:58:48.679Z,4.00
2023-05-10T07:01:51.476Z,4.12
2023-05-10T07:04:55.139Z,4.20
2023-05-10T07:07:58.509Z,4.00
2023-05-10T07:11:06.307Z,4.25
2023-05-10T07:14:08.900Z,4.15
2023-05-10T07:17:11.787Z,4.00
2023-05-10T07:20:14.498Z,4.32
2023-05-10T07:23:18.814Z,4.00
2023-05-10T07:26:21.976Z,3.87
2023-05-10T07:29:24.962Z,3.90
2023-05-10T07:32:27.602Z,4.03
2023-05-10T07:35:30.483Z,4.40
2023-05-10T07:38:33.018Z,3.80
2023-05-10T07:41:36.237Z,3.65
2023-05-10T07:44:38.881Z,3.90
2023-05-10T07:47:41.932Z,3.75
2023-05-10T07:50:44.630Z,3.90
2023-05-10T07:53:47.739Z,3.83
2023-05-10T07:56:51.998Z,3.87
2023-05-10T07:59:54.881Z,3.85
2023-05-10T08:02:57.562Z,3.90
2023-05-10T08:06:00.713Z,3.90
2023-05-10T08:09:03.430Z,3.40
2023-05-10T08:12:06.691Z,2.95
2023-05-10T08:15:09.853Z,3.37
2023-05-10T08:18:12.805Z,3.33
2023-05-10T08:21:16.606Z,3.90
2023-05-10T08:24:19.490Z,2.90
2023-05-10T08:27:22.197Z,3.20
2023-05-10T08:30:25.038Z,2.95
2023-05-10T08:33:27.670Z,3.37
2023-05-10T08:36:30.970Z,3.03
2023-05-10T08:39:36.746Z,3.12
2023-05-10T08:42:43.508Z,3.30
2023-05-10T08:45:49.164Z,3.10
2023-05-10T08:48:53.138Z,3.40
2023-05-10T08:51:56.913Z,3.15
2023-05-10T08:55:00.040Z,3.25
2023-05-10T08:58:02.826Z,3.17
2023-05-10T09:01:07.153Z,3.30
2023-05-10T09:04:10.473Z,3.30
2023-05-10T09:07:13.974Z,3.22
2023-05-10T09:10:17.356Z,3.12
2023-05-10T09:13:22.685Z,3.03
2023-05-10T09:16:25.506Z,3.25
2023-05-10T09:19:29.440Z,3.42
2023-05-10T09:22:33.231Z,3.00
2023-05-10T09:25:38.217Z,3.00
2023-05-10T09:28:55.492Z,2.85
2023-05-10T09:31:58.910Z,2.97
2023-05-10T09:35:07.842Z,2.97
2023-05-10T09:38:11.468Z,2.80
2023-05-10T09:41:21.719Z,2.90
2023-05-10T09:44:27.212Z,3.03
2023-05-10T09:47:30.460Z,2.83
2023-05-10T09:50:35.142Z,3.40
2023-05-10T09:53:38.070Z,3.10
2023-05-10T09:56:41.667Z,2.95
2023-05-10T09:59:44.740Z,3.20
2023-05-10T10:02:55.287Z,3.00
2023-05-10T10:05:58.540Z,2.78
2023-05-10T10:09:01.358Z,2.83
2023-05-10T10:12:05.573Z,2.65
2023-05-10T10:15:09.714Z,2.78
2023-05-10T10:18:16.584Z,3.03
2023-05-10T10:21:20.068Z,2.80
2023-05-10T10:24:23.071Z,3.28
2023-05-10T10:27:49.794Z,2.80
2023-05-10T10:30:56.393Z,2.60
2023-05-10T10:34:08.372Z,2.83
2023-05-10T10:37:11.351Z,2.60
2023-05-10T10:40:28.253Z,2.42
2023-05-10T10:43:31.354Z,2.40
2023-05-10T10:46:35.572Z,2.45
2023-05-10T10:49:58.787Z,2.20
2023-05-10T10:53:12.123Z,2.08
2023-05-10T10:56:16.314Z,2.30
2023-05-10T10:59:29.076Z,2.45
2023-05-10T11:02:46.954Z,2.20
2023-05-10T11:05:52.141Z,2.17
2023-05-10T11:08:55.764Z,2.05
2023-05-10T11:12:00.767Z,2.47
2023-05-10T11:15:04.001Z,2.90
2023-05-10T11:18:20.671Z,2.05
2023-05-10T11:21:23.828Z,2.40
2023-05-10T11:24:28.942Z,2.20
2023-05-10T11:27:34.091Z,2.00
2023-05-10T11:30:39.460Z,2.05
2023-05-10T11:33:52.692Z,2.05
2023-05-10T11:36:56.624Z,2.22
2023-05-10T11:39:59.522Z,1.95
2023-05-10T11:43:02.395Z,2.25
2023-05-10T11:46:10.747Z,2.00
2023-05-10T11:52:19.872Z,2.30
2023-05-10T11:55:23.316Z,2.17
2023-05-10T11:58:26.221Z,2.10
2023-05-10T12:01:29.944Z,1.98
2023-05-10T12:04:33.232Z,2.22
2023-05-10T12:07:36.080Z,2.10
2023-05-10T12:10:38.936Z,1.95
2023-05-10T12:13:47.513Z,2.15
2023-05-10T12:16:50.570Z,2.30
2023-05-10T12:19:53.591Z,2.08
2023-05-10T12:23:00.596Z,1.80
2023-05-10T12:26:07.372Z,2.00
2023-05-10T12:29:18.389Z,1.80
2023-05-10T12:32:21.254Z,1.73
2023-05-10T12:35:25.154Z,1.87
2023-05-10T12:38:27.972Z,2.10
2023-05-10T12:41:30.757Z,1.50
2023-05-10T12:44:33.490Z,1.85
2023-05-10T12:47:37.006Z,1.75
2023-05-10T12:50:39.665Z,2.00
2023-05-10T12:53:45.073Z,1.30
2023-05-10T12:56:48.770Z,1.70
2023-05-10T12:59:51.650Z,1.77
2023-05-10T13:02:54.414Z,1.77
2023-05-10T13:05:57.413Z,1.80
2023-05-10T13:08:59.951Z,1.80
2023-05-10T13:12:03.447Z,1.70
2023-05-10T13:15:06.654Z,1.80
2023-05-10T13:18:09.584Z,1.60
2023-05-10T13:21:12.343Z,1.55
2023-05-10T13:24:15.352Z,1.55
2023-05-10T13:27:17.936Z,1.52
2023-05-10T13:30:21.537Z,1.67
2023-05-10T13:33:24.293Z,1.55
2023-05-10T13:36:27.401Z,1.70
2023-05-10T13:39:34.269Z,1.40
2023-05-10T13:42:37.189Z,1.80
2023-05-10T13:45:40.047Z,1.55
2023-05-10T13:48:42.964Z,1.35
2023-05-10T13:51:45.682Z,1.60
2023-05-10T13:54:48.548Z,1.65
2023-05-10T13:57:51.222Z,1.60
2023-05-10T14:00:54.168Z,1.58
2023-05-10T14:03:57.097Z,2.03
2023-05-10T14:06:59.700Z,1.30
2023-05-10T14:10:05.536Z,1.40
2023-05-10T14:13:08.907Z,1.37
2023-05-10T14:16:12.543Z,1.60
2023-05-10T14:19:15.174Z,1.40
2023-05-10T14:22:18.106Z,1.30
2023-05-10T14:25:20.750Z,1.20
2023-05-10T14:28:24.661Z,1.23
2023-05-10T14:31:27.340Z,1.92
2023-05-10T14:34:30.342Z,1.55
2023-05-10T14:37:33.480Z,1.23
2023-05-10T14:40:36.833Z,1.40
2023-05-10T14:43:39.413Z,1.30
2023-05-10T14:46:42.865Z,1.35
2023-05-10T14:49:45.510Z,1.48
2023-05-10T14:52:48.706Z,1.50
2023-05-10T14:55:51.176Z,1.42
2023-05-10T14:58:54.701Z,1.35
2023-05-10T15:01:57.721Z,1.30
2023-05-10T15:05:01.343Z,1.25
2023-05-10T15:08:05.822Z,1.30
2023-05-10T15:11:08.843Z,1.10
2023-05-10T15:14:11.494Z,1.45
2023-05-10T15:17:14.288Z,1.33
2023-05-10T15:20:16.957Z,1.12
2023-05-10T15:23:19.830Z,1.10
2023-05-10T15:26:23.166Z,1.10
2023-05-10T15:29:26.234Z,1.60
2023-05-10T15:32:30.235Z,1.20
2023-05-10T15:35:33.352Z,1.30
2023-05-10T15:38:37.752Z,1.30
2023-05-10T15:41:40.631Z,1.45
2023-05-10T15:44:44.942Z,1.25
2023-05-10T15:47:47.858Z,1.12
2023-05-10T15:50:50.430Z,1.20
2023-05-10T15:54:05.817Z,1.25
2023-05-10T15:57:09.992Z,1.25
2023-05-10T16:00:13.660Z,1.20
2023-05-10T16:03:16.440Z,1.12
2023-05-10T16:06:19.326Z,1.37
2023-05-10T16:09:22.202Z,1.50
2023-05-10T16:12:25.286Z,1.98
2023-05-10T16:15:27.876Z,1.67
2023-05-10T16:18:31.044Z,1.17
2023-05-10T16:21:33.822Z,1.30
2023-05-10T16:24:36.678Z,1.20
2023-05-10T16:27:39.220Z,1.40
2023-05-10T16:30:42.336Z,1.52
2023-05-10T16:33:45.083Z,1.70
2023-05-10T16:36:48.017Z,1.80
2023-05-10T16:39:50.537Z,1.48
2023-05-10T16:42:53.339Z,1.80
2023-05-10T16:45:56.390Z,1.80
2023-05-10T16:49:00.256Z,1.55
2023-05-10T16:52:03.288Z,1.90
2023-05-10T16:55:06.581Z,1.60
2023-05-10T16:58:09.333Z,1.83
2023-05-10T17:01:12.419Z,2.03
2023-05-10T17:04:15.047Z,1.67
2023-05-10T17:07:19.060Z,2.00
2023-05-10T17:10:21.827Z,1.90
2023-05-10T17:13:24.659Z,1.70
2023-05-10T17:16:27.365Z,2.03
2023-05-10T17:19:30.753Z,1.80
2023-05-10T17:22:33.342Z,2.08
2023-05-10T17:25:36.838Z,1.90
2023-05-10T17:28:39.485Z,2.17
2023-05-10T17:31:42.771Z,1.87
2023-05-10T17:34:45.352Z,1.95
2023-05-10T17:37:48.312Z,1.75
2023-05-10T17:40:51.494Z,2.15
2023-05-10T17:43:54.805Z,2.12
2023-05-10T17:46:57.330Z,2.30
2023-05-10T17:50:00.371Z,2.22
2023-05-10T17:53:03.165Z,1.90
2023-05-10T17:56:06.753Z,2.08
2023-05-10T17:59:09.354Z,2.17
2023-05-10T18:02:13.228Z,1.98
2023-05-10T18:05:16.368Z,2.00
2023-05-10T18:08:22.845Z,1.70
2023-05-10T18:11:26.354Z,1.80
2023-05-10T18:14:40.079Z,1.92
2023-05-10T18:17:44.048Z,2.10
2023-05-10T18:20:46.895Z,2.17
2023-05-10T18:23:49.946Z,1.77
2023-05-10T18:26:52.665Z,1.87
2023-05-10T18:29:58.687Z,2.22
2023-05-10T18:33:01.620Z,1.80
2023-05-10T18:36:05.256Z,2.03
2023-05-10T18:39:08.421Z,1.77
2023-05-10T18:42:11.683Z,2.15
2023-05-10T18:45:15.359Z,2.10
2023-05-10T18:48:18.892Z,1.80
2023-05-10T18:51:22.738Z,1.95
2023-05-10T18:54:26.740Z,2.17
2023-05-10T18:57:29.787Z,2.10
2023-05-10T19:00:33.446Z,2.30
2023-05-10T19:03:36.835Z,2.78
2023-05-10T19:06:42.003Z,2.05
2023-05-10T19:09:44.954Z,2.22
2023-05-10T19:12:48.168Z,1.83
2023-05-10T19:16:08.522Z,2.20
2023-05-10T19:19:14.245Z,1.90
2023-05-10T19:22:21.371Z,2.17
2023-05-10T19:25:29.749Z,2.00
2023-05-10T19:28:32.798Z,1.98
2023-05-10T19:31:36.187Z,2.20
2023-05-10T19:34:39.157Z,2.85
2023-05-10T19:37:46.118Z,2.58
2023-05-10T19:40:50.661Z,2.62
2023-05-10T19:43:54.032Z,2.65
2023-05-10T19:46:57.213Z,2.65
2023-05-10T19:50:00.702Z,2.35
2023-05-10T19:53:04.187Z,2.42
2023-05-10T19:56:07.564Z,2.20
2023-05-10T19:59:10.528Z,2.62
2023-05-10T20:02:14.926Z,2.10
2023-05-10T20:05:18.240Z,2.20
2023-05-10T20:08:22.434Z,2.30
2023-05-10T20:11:25.631Z,2.40
2023-05-10T20:14:28.353Z,2.30
2023-05-10T20:17:31.501Z,2.17
2023-05-10T20:20:34.429Z,2.37
2023-05-10T20:23:37.898Z,2.20
2023-05-10T20:26:41.048Z,2.17
2023-05-10T20:29:44.205Z,2.50
2023-05-10T20:32:47.333Z,2.42
2023-05-10T20:35:51.362Z,2.72
2023-05-10T20:38:54.316Z,2.33
2023-05-10T20:41:57.434Z,2.65
2023-05-10T20:45:00.383Z,2.30
2023-05-10T20:48:04.213Z,2.50
2023-05-10T20:51:07.027Z,2.28
2023-05-10T20:54:09.909Z,2.35
2023-05-10T20:57:15.554Z,2.53
2023-05-10T21:00:18.804Z,2.50
2023-05-10T21:03:21.641Z,2.50
2023-05-10T21:06:24.724Z,2.72
2023-05-10T21:09:27.271Z,2.50
2023-05-10T21:12:30.132Z,2.20
2023-05-10T21:15:32.747Z,2.25
2023-05-10T21:18:36.067Z,2.47
2023-05-10T21:21:38.744Z,2.47
2023-05-10T21:24:41.713Z,2.83
2023-05-10T21:27:44.378Z,2.90
2023-05-10T21:30:47.894Z,2.50
2023-05-10T21:33:50.588Z,2.17
2023-05-10T21:36:54.647Z,2.37
2023-05-10T21:39:57.238Z,2.37
2023-05-10T21:43:00.136Z,2.33
2023-05-10T21:46:02.952Z,2.10
2023-05-10T21:49:05.935Z,2.25
2023-05-10T21:52:08.513Z,2.20
2023-05-10T21:55:11.461Z,2.17
2023-05-10T21:58:14.117Z,2.10
2023-05-10T22:01:18.062Z,2.47
2023-05-10T22:04:20.954Z,2.47
2023-05-10T22:07:23.517Z,2.10
2023-05-10T22:10:26.359Z,2.12
2023-05-10T22:13:28.957Z,2.15
2023-05-10T22:16:31.828Z,2.30
2023-05-10T22:19:34.435Z,2.22
2023-05-10T22:22:37.484Z,2.25
2023-05-10T22:25:39.993Z,2.42
2023-05-10T22:28:42.852Z,2.50
2023-05-10T22:31:45.825Z,2.20
2023-05-10T22:34:48.676Z,2.37
2023-05-10T22:37:51.446Z,2.17
2023-05-10T22:40:54.248Z,1.92
2023-05-10T22:43:56.827Z,2.12
2023-05-10T22:46:59.917Z,2.50
2023-05-10T22:50:05.402Z,2.47
2023-05-10T22:53:08.477Z,2.50
2023-05-10T22:56:11.108Z,2.40
2023-05-10T22:59:13.966Z,2.47
2023-05-10T23:02:16.955Z,2.50
2023-05-10T23:05:19.948Z,2.55
2023-05-10T23:08:22.732Z,2.47
2023-05-10T23:11:25.635Z,2.42
2023-05-10T23:14:28.261Z,2.62
2023-05-10T23:17:31.061Z,2.25
2023-05-10T23:20:33.645Z,2.22
2023-05-10T23:23:37.373Z,2.22
2023-05-10T23:26:40.036Z,2.50
2023-05-10T23:29:45.049Z,2.10
2023-05-10T23:32:47.565Z,1.83
2023-05-10T23:35:50.747Z,2.00
2023-05-10T23:38:53.319Z,2.25
2023-05-10T23:41:56.241Z,2.15
2023-05-10T23:44:58.815Z,1.98
2023-05-10T23:48:01.618Z,2.10
2023-05-10T23:51:04.348Z,1.90
2023-05-10T23:54:07.349Z,2.10
2023-05-10T23:57:09.924Z,2.03
